Flight Track Log - Related Links

Times and Time Zones

All times are in EDT time to prevent confusion due to time zone crossing. See the AJX916 flight status page for this flight to view local times or setup timezone preferences in your user account.

Time Position Orientation Groundspeed Altitude Reporting Facility
EDT Latitude Longitude Course Direction KTS MPH feet Rate Location/Type
Sat 01:34:00 PM 14.0122 101.1682 51° Northeast  Level Estimated
Sat 01:35:00 PM 14.0948 101.2736 51° Northeast  Level Estimated
Sat 01:36:00 PM 14.1774 101.3791 51° Northeast  Level Estimated
Sat 01:37:00 PM 14.2600 101.4846 51° Northeast  Level Estimated
Sat 01:38:00 PM 14.3425 101.5903 51° Northeast  Level Estimated
Sat 01:39:00 PM 14.4249 101.6960 51° Northeast  Level Estimated
Sat 01:40:00 PM 14.5074 101.8018 51° Northeast  Level Estimated
Sat 01:41:00 PM 14.5897 101.9077 51° Northeast  Level Estimated
Sat 01:42:00 PM 14.6721 102.0136 51° Northeast  Level Estimated
Sat 01:43:00 PM 14.7543 102.1197 51° Northeast  Level Estimated
Sat 01:44:00 PM 14.8365 102.2258 51° Northeast  Level Estimated
Sat 01:45:00 PM 14.9187 102.3320 51° Northeast  Level Estimated
Sat 01:46:00 PM 15.0009 102.4383 51° Northeast  Level Estimated
Sat 01:47:00 PM 15.0829 102.5446 51° Northeast  Level Estimated
Sat 01:48:00 PM 15.1650 102.6511 51° Northeast  Level Estimated
Sat 01:49:00 PM 15.2470 102.7576 51° Northeast  Level Estimated
Sat 01:50:00 PM 15.3289 102.8642 51° Northeast  Level Estimated
Sat 01:51:00 PM 15.4108 102.9709 51° Northeast  Level Estimated
Sat 01:52:00 PM 15.4926 103.0777 51° Northeast  Level Estimated
Sat 01:53:00 PM 15.5744 103.1846 52° Northeast  Level Estimated
Sat 01:54:00 PM 15.6561 103.2915 52° Northeast  Level Estimated
Sat 01:55:00 PM 15.7378 103.3985 52° Northeast  Level Estimated
Sat 01:56:00 PM 15.8194 103.5057 52° Northeast  Level Estimated
Sat 01:57:00 PM 15.9010 103.6129 52° Northeast  Level Estimated
Sat 01:58:00 PM 15.9825 103.7202 52° Northeast  Level Estimated
Sat 01:59:00 PM 16.0639 103.8275 52° Northeast  Level Estimated
Sat 02:00:00 PM 16.1453 103.9350 52° Northeast  Level Estimated
Sat 02:01:00 PM 16.2267 104.0426 52° Northeast  Level Estimated
Sat 02:02:00 PM 16.3080 104.1502 52° Northeast  Level Estimated
Sat 02:03:00 PM 16.3892 104.2579 52° Northeast  Level Estimated
Sat 02:04:00 PM 16.4704 104.3658 52° Northeast  Level Estimated
Sat 02:05:00 PM 16.5516 104.4737 52° Northeast  Level Estimated
Sat 02:06:00 PM 16.6327 104.5817 52° Northeast  Level Estimated
Sat 02:07:00 PM 16.7137 104.6898 52° Northeast  Level Estimated
Sat 02:08:00 PM 16.7946 104.7980 52° Northeast  Level Estimated
Sat 02:09:00 PM 16.8755 104.9062 52° Northeast  Level Estimated
Sat 02:10:00 PM 16.9564 105.0146 52° Northeast  Level Estimated
Sat 02:11:00 PM 17.0372 105.1231 52° Northeast  Level Estimated
Sat 02:12:00 PM 17.1179 105.2316 52° Northeast  Level Estimated
Sat 02:13:00 PM 17.1986 105.3403 52° Northeast  Level Estimated
Sat 02:14:00 PM 17.2792 105.4490 52° Northeast  Level Estimated
Sat 02:15:00 PM 17.3598 105.5579 52° Northeast  Level Estimated
Sat 02:16:00 PM 17.4403 105.6668 52° Northeast  Level Estimated
Sat 02:17:00 PM 17.5208 105.7758 52° Northeast  Level Estimated
Sat 02:18:00 PM 17.6012 105.8850 52° Northeast  Level Estimated
Sat 02:19:00 PM 17.6815 105.9942 52° Northeast  Level Estimated
Sat 02:20:00 PM 17.7617 106.1035 52° Northeast  Level Estimated
Sat 02:21:00 PM 17.8420 106.2130 52° Northeast  Level Estimated
Sat 02:22:00 PM 17.9221 106.3225 52° Northeast  Level Estimated
Sat 02:23:00 PM 18.0022 106.4321 52° Northeast  Level Estimated
Sat 02:24:00 PM 18.0822 106.5418 52° Northeast  Level Estimated
Sat 02:25:00 PM 18.1622 106.6516 53° Northeast  Level Estimated
Sat 02:26:00 PM 18.2421 106.7616 53° Northeast  Level Estimated
Sat 02:27:00 PM 18.3219 106.8716 53° Northeast  Level Estimated
Sat 02:28:00 PM 18.4017 106.9817 53° Northeast  Level Estimated
Sat 02:29:00 PM 18.4814 107.0919 53° Northeast  Level Estimated
Sat 02:30:00 PM 18.5610 107.2023 53° Northeast  Level Estimated
Sat 02:31:00 PM 18.6406 107.3127 53° Northeast  Level Estimated
Sat 02:32:00 PM 18.7201 107.4232 53° Northeast  Level Estimated
Sat 02:33:00 PM 18.7996 107.5339 53° Northeast  Level Estimated
Sat 02:34:00 PM 18.8790 107.6446 53° Northeast  Level Estimated
Sat 02:35:00 PM 18.9583 107.7555 53° Northeast  Level Estimated
Sat 02:36:00 PM 19.0375 107.8664 53° Northeast  Level Estimated
Sat 02:37:00 PM 19.1167 107.9775 53° Northeast  Level Estimated
Sat 02:38:00 PM 19.1958 108.0887 53° Northeast  Level Estimated
Sat 02:39:00 PM 19.2749 108.2000 53° Northeast  Level Estimated
Sat 02:40:00 PM 19.3539 108.3113 53° Northeast  Level Estimated
Sat 02:41:00 PM 19.4328 108.4228 53° Northeast  Level Estimated
Sat 02:42:00 PM 19.5117 108.5344 53° Northeast  Level Estimated
Sat 02:43:00 PM 19.5904 108.6461 53° Northeast  Level Estimated
Sat 02:44:00 PM 19.6691 108.7580 53° Northeast  Level Estimated
Sat 02:45:00 PM 19.7478 108.8699 53° Northeast  Level Estimated
Sat 02:46:00 PM 19.8263 108.9819 53° Northeast  Level Estimated
Sat 02:47:00 PM 19.9049 109.0941 53° Northeast  Level Estimated
Sat 02:48:00 PM 19.9833 109.2063 53° Northeast  Level Estimated
Sat 02:49:00 PM 20.0616 109.3187 53° Northeast  Level Estimated
Sat 02:50:00 PM 20.1399 109.4312 53° Northeast  Level Estimated
Sat 02:51:00 PM 20.2181 109.5438 53° Northeast  Level Estimated
Sat 02:52:00 PM 20.2963 109.6565 54° Northeast  Level Estimated
Sat 02:53:00 PM 20.3744 109.7693 54° Northeast  Level Estimated
Sat 02:54:00 PM 20.4524 109.8823 54° Northeast  Level Estimated
Sat 02:55:00 PM 20.5303 109.9953 54° Northeast  Level Estimated
Sat 02:56:00 PM 20.6082 110.1085 54° Northeast  Level Estimated
Sat 02:57:00 PM 20.6859 110.2218 54° Northeast  Level Estimated
Sat 02:58:00 PM 20.7637 110.3352 54° Northeast  Level Estimated
Sat 02:59:00 PM 20.8413 110.4487 54° Northeast  Level Estimated
Sat 03:00:00 PM 20.9189 110.5623 54° Northeast  Level Estimated
Sat 03:01:00 PM 20.9963 110.6761 54° Northeast  Level Estimated
Sat 03:02:00 PM 21.0738 110.7899 54° Northeast  Level Estimated
Sat 03:03:00 PM 21.1511 110.9039 54° Northeast  Level Estimated
Sat 03:04:00 PM 21.2283 111.0180 54° Northeast  Level Estimated
Sat 03:05:00 PM 21.3055 111.1323 54° Northeast  Level Estimated
Sat 03:06:00 PM 21.3826 111.2466 54° Northeast  Level Estimated
Sat 03:07:00 PM 21.4597 111.3611 54° Northeast  Level Estimated
Sat 03:08:00 PM 21.5366 111.4757 54° Northeast  Level Estimated
Sat 03:09:00 PM 21.6135 111.5904 54° Northeast  Level Estimated
Sat 03:10:00 PM 21.6903 111.7052 54° Northeast  Level Estimated
Sat 03:11:00 PM 21.7670 111.8202 54° Northeast  Level Estimated
Sat 03:12:00 PM 21.8436 111.9352 54° Northeast  Level Estimated
Sat 03:13:00 PM 21.9202 112.0504 54° Northeast  Level Estimated
Sat 03:14:00 PM 21.9966 112.1658 54° Northeast  Level Estimated
Sat 03:15:00 PM 22.0730 112.2812 54° Northeast  Level Estimated
Sat 03:16:00 PM 22.1493 112.3968 55° Northeast  Level Estimated
Sat 03:17:00 PM 22.2256 112.5125 55° Northeast  Level Estimated
Sat 03:18:00 PM 22.3017 112.6283 55° Northeast  Level Estimated
Sat 03:19:00 PM 22.3778 112.7442 55° Northeast  Level Estimated
Sat 03:20:00 PM 22.4538 112.8603 55° Northeast  Level Estimated
Sat 03:21:00 PM 22.5296 112.9765 55° Northeast  Level Estimated
Sat 03:22:00 PM 22.6055 113.0929 55° Northeast  Level Estimated
Sat 03:23:00 PM 22.6812 113.2093 55° Northeast  Level Estimated
Sat 03:24:00 PM 22.7568 113.3259 55° Northeast  Level Estimated
Sat 03:25:00 PM 22.8324 113.4426 55° Northeast  Level Estimated
Sat 03:26:00 PM 22.9079 113.5595 55° Northeast  Level Estimated
Sat 03:27:00 PM 22.9833 113.6765 55° Northeast  Level Estimated
Sat 03:28:00 PM 23.0586 113.7936 55° Northeast  Level Estimated
Sat 03:29:00 PM 23.1338 113.9108 55° Northeast  Level Estimated
Sat 03:30:00 PM 23.2089 114.0282 55° Northeast  Level Estimated
Sat 03:31:00 PM 23.2840 114.1457 55° Northeast  Level Estimated
Sat 03:32:00 PM 23.3589 114.2633 55° Northeast  Level Estimated
Sat 03:33:00 PM 23.4338 114.3811 55° Northeast  Level Estimated
Sat 03:34:00 PM 23.5086 114.4990 55° Northeast  Level Estimated
Sat 03:35:00 PM 23.5833 114.6170 55° Northeast  Level Estimated
Sat 03:36:00 PM 23.6579 114.7352 55° Northeast  Level Estimated
Sat 03:37:00 PM 23.7324 114.8535 55° Northeast  Level Estimated
Sat 03:38:00 PM 23.8068 114.9719 56° Northeast  Level Estimated
Sat 03:39:00 PM 23.8811 115.0905 56° Northeast  Level Estimated
Sat 03:40:00 PM 23.9554 115.2092 56° Northeast  Level Estimated
Sat 03:41:00 PM 24.0295 115.3280 56° Northeast  Level Estimated
Sat 03:42:00 PM 24.1036 115.4470 56° Northeast  Level Estimated
Sat 03:43:00 PM 24.1776 115.5661 56° Northeast  Level Estimated
Sat 03:44:00 PM 24.2514 115.6854 56° Northeast  Level Estimated
Sat 03:45:00 PM 24.3252 115.8048 56° Northeast  Level Estimated
Sat 03:46:00 PM 24.3989 115.9243 56° Northeast  Level Estimated
Sat 03:47:00 PM 24.4725 116.0440 56° Northeast  Level Estimated
Sat 03:48:00 PM 24.5460 116.1638 56° Northeast  Level Estimated
Sat 03:49:00 PM 24.6194 116.2838 56° Northeast  Level Estimated
Sat 03:50:00 PM 24.6927 116.4039 56° Northeast  Level Estimated
Sat 03:51:00 PM 24.7659 116.5241 56° Northeast  Level Estimated
Sat 03:52:00 PM 24.8390 116.6445 56° Northeast  Level Estimated
Sat 03:53:00 PM 24.9121 116.7651 56° Northeast  Level Estimated
Sat 03:54:00 PM 24.9850 116.8857 56° Northeast  Level Estimated
Sat 03:55:00 PM 25.0578 117.0065 56° Northeast  Level Estimated
Sat 03:56:00 PM 25.1305 117.1275 56° Northeast  Level Estimated
Sat 03:57:00 PM 25.2032 117.2486 56° Northeast  Level Estimated
Sat 03:58:00 PM 25.2757 117.3698 56° Northeast  Level Estimated
Sat 03:59:00 PM 25.3481 117.4912 57° Northeast  Level Estimated
Sat 04:00:00 PM 25.4205 117.6127 57° Northeast  Level Estimated
Sat 04:01:00 PM 25.4927 117.7344 57° Northeast  Level Estimated
Sat 04:02:00 PM 25.5648 117.8562 57° Northeast  Level Estimated
Sat 04:03:00 PM 25.6369 117.9782 57° Northeast  Level Estimated
Sat 04:04:00 PM 25.7088 118.1003 57° Northeast  Level Estimated
Sat 04:05:00 PM 25.7806 118.2226 57° Northeast  Level Estimated
Sat 04:06:00 PM 25.8523 118.3450 57° Northeast  Level Estimated
Sat 04:07:00 PM 25.9240 118.4676 57° Northeast  Level Estimated
Sat 04:08:00 PM 25.9955 118.5903 57° Northeast  Level Estimated
Sat 04:09:00 PM 26.0669 118.7131 57° Northeast  Level Estimated
Sat 04:10:00 PM 26.1382 118.8362 57° Northeast  Level Estimated
Sat 04:11:00 PM 26.2094 118.9593 57° Northeast  Level Estimated
Sat 04:12:00 PM 26.2805 119.0826 57° Northeast  Level Estimated
Sat 04:13:00 PM 26.3515 119.2061 57° Northeast  Level Estimated
Sat 04:14:00 PM 26.4224 119.3297 57° Northeast  Level Estimated
Sat 04:15:00 PM 26.4932 119.4535 57° Northeast  Level Estimated
Sat 04:16:00 PM 26.5639 119.5774 57° Northeast  Level Estimated
Sat 04:17:00 PM 26.6345 119.7014 58° Northeast  Level Estimated
Sat 04:18:00 PM 26.7049 119.8257 58° Northeast  Level Estimated
Sat 04:19:00 PM 26.7753 119.9501 58° Northeast  Level Estimated
Sat 04:20:00 PM 26.8455 120.0746 58° Northeast  Level Estimated
Sat 04:21:00 PM 26.9156 120.1993 58° Northeast  Level Estimated
Sat 04:22:00 PM 26.9857 120.3241 58° Northeast  Level Estimated
Sat 04:23:00 PM 27.0556 120.4491 58° Northeast  Level Estimated
Sat 04:24:00 PM 27.1254 120.5743 58° Northeast  Level Estimated
Sat 04:25:00 PM 27.1951 120.6996 58° Northeast  Level Estimated
Sat 04:26:00 PM 27.2647 120.8250 58° Northeast  Level Estimated
Sat 04:27:00 PM 27.3342 120.9507 58° Northeast  Level Estimated
Sat 04:28:00 PM 27.4035 121.0764 58° Northeast  Level Estimated
Sat 04:29:00 PM 27.4728 121.2024 58° Northeast  Level Estimated
Sat 04:30:00 PM 27.5419 121.3285 58° Northeast  Level Estimated
Sat 04:31:00 PM 27.6109 121.4547 58° Northeast  Level Estimated
Sat 04:32:00 PM 27.6798 121.5811 58° Northeast  Level Estimated
Sat 04:33:00 PM 27.7486 121.7077 58° Northeast  Level Estimated
Sat 04:34:00 PM 27.8173 121.8344 58° Northeast  Level Estimated
Sat 04:35:00 PM 27.8858 121.9613 59° Northeast  Level Estimated
Sat 04:36:00 PM 27.9543 122.0884 59° Northeast  Level Estimated
Sat 04:37:00 PM 28.0226 122.2156 59° Northeast  Level Estimated
Sat 04:38:00 PM 28.0908 122.3430 59° Northeast  Level Estimated
Sat 04:39:00 PM 28.1589 122.4705 59° Northeast  Level Estimated
Sat 04:40:00 PM 28.2269 122.5982 59° Northeast  Level Estimated
Sat 04:41:00 PM 28.2947 122.7261 59° Northeast  Level Estimated
Sat 04:42:00 PM 28.3625 122.8541 59° Northeast  Level Estimated
Sat 04:43:00 PM 28.4301 122.9823 59° Northeast  Level Estimated
Sat 04:44:00 PM 28.4976 123.1106 59° Northeast  Level Estimated
Sat 04:45:00 PM 28.5649 123.2392 59° Northeast  Level Estimated
Sat 04:46:00 PM 28.6322 123.3679 59° Northeast  Level Estimated
Sat 04:47:00 PM 28.6993 123.4967 59° Northeast  Level Estimated
Sat 04:48:00 PM 28.7663 123.6257 59° Northeast  Level Estimated
Sat 04:49:00 PM 28.8332 123.7549 59° Northeast  Level Estimated
Sat 04:50:00 PM 28.9000 123.8842 59° Northeast  Level Estimated
Sat 04:51:00 PM 28.9666 124.0137 60° Northeast  Level Estimated
Sat 04:52:00 PM 29.0331 124.1434 60° Northeast  Level Estimated
Sat 04:53:00 PM 29.0995 124.2733 60° Northeast  Level Estimated
Sat 04:54:00 PM 29.1658 124.4033 60° Northeast  Level Estimated
Sat 04:55:00 PM 29.2319 124.5334 60° Northeast  Level Estimated
Sat 04:56:00 PM 29.2979 124.6638 60° Northeast  Level Estimated
Sat 04:57:00 PM 29.3638 124.7943 60° Northeast  Level Estimated
Sat 04:58:00 PM 29.4296 124.9250 60° Northeast  Level Estimated
Sat 04:59:00 PM 29.4952 125.0558 60° Northeast  Level Estimated
Sat 05:00:00 PM 29.5607 125.1869 60° Northeast  Level Estimated
Sat 05:01:00 PM 29.6261 125.3181 60° Northeast  Level Estimated
Sat 05:02:00 PM 29.6913 125.4494 60° Northeast  Level Estimated
Sat 05:03:00 PM 29.7564 125.5809 60° Northeast  Level Estimated
Sat 05:04:00 PM 29.8214 125.7126 60° Northeast  Level Estimated
Sat 05:05:00 PM 29.8863 125.8445 60° Northeast  Level Estimated
Sat 05:06:00 PM 29.9510 125.9766 60° Northeast  Level Estimated
Sat 05:07:00 PM 30.0156 126.1088 61° Northeast  Level Estimated
Sat 05:08:00 PM 30.0800 126.2412 61° Northeast  Level Estimated
Sat 05:09:00 PM 30.1444 126.3737 61° Northeast  Level Estimated
Sat 05:10:00 PM 30.2085 126.5065 61° Northeast  Level Estimated
Sat 05:11:00 PM 30.2726 126.6394 61° Northeast  Level Estimated
Sat 05:12:00 PM 30.3365 126.7725 61° Northeast  Level Estimated
Sat 05:13:00 PM 30.4003 126.9057 61° Northeast  Level Estimated
Sat 05:14:00 PM 30.4640 127.0392 61° Northeast  Level Estimated
Sat 05:15:00 PM 30.5275 127.1728 61° Northeast  Level Estimated
Sat 05:16:00 PM 30.5909 127.3065 61° Northeast  Level Estimated
Sat 05:17:00 PM 30.6541 127.4405 61° Northeast  Level Estimated
Sat 05:18:00 PM 30.7172 127.5746 61° Northeast  Level Estimated
Sat 05:19:00 PM 30.7802 127.7089 61° Northeast  Level Estimated
Sat 05:20:00 PM 30.8430 127.8434 61° Northeast  Level Estimated
Sat 05:21:00 PM 30.9057 127.9781 61° Northeast  Level Estimated
Sat 05:22:00 PM 30.9683 128.1129 62° Northeast  Level Estimated
Sat 05:23:00 PM 31.0307 128.2479 62° Northeast  Level Estimated
Sat 05:24:00 PM 31.0929 128.3831 62° Northeast  Level Estimated
Sat 05:25:00 PM 31.1551 128.5185 62° Northeast  Level Estimated
Sat 05:26:00 PM 31.2171 128.6540 62° Northeast  Level Estimated
Sat 05:27:00 PM 31.2789 128.7897 62° Northeast  Level Estimated
Sat 05:28:00 PM 31.3406 128.9256 62° Northeast  Level Estimated
Sat 05:29:00 PM 31.4022 129.0617 62° Northeast  Level Estimated
Sat 05:30:00 PM 31.4636 129.1980 62° Northeast  Level Estimated
Sat 05:31:00 PM 31.5249 129.3344 62° Northeast  Level Estimated
Sat 05:32:00 PM 31.5860 129.4710 62° Northeast  Level Estimated
Sat 05:33:00 PM 31.6470 129.6078 62° Northeast  Level Estimated
Sat 05:34:00 PM 31.7078 129.7448 62° Northeast  Level Estimated
Sat 05:35:00 PM 31.7685 129.8819 62° Northeast  Level Estimated
Sat 05:36:00 PM 31.8290 130.0192 63° Northeast  Level Estimated
Sat 05:37:00 PM 31.8894 130.1567 63° Northeast  Level Estimated
Sat 05:38:00 PM 31.9497 130.2944 63° Northeast  Level Estimated
Sat 05:39:00 PM 32.0098 130.4323 63° Northeast  Level Estimated
Sat 05:40:00 PM 32.0697 130.5703 63° Northeast  Level Estimated
Sat 05:41:00 PM 32.1295 130.7086 63° Northeast  Level Estimated
Sat 05:42:00 PM 32.1892 130.8470 63° Northeast  Level Estimated
Sat 05:43:00 PM 32.2486 130.9856 63° Northeast  Level Estimated
Sat 05:44:00 PM 32.3080 131.1243 63° Northeast  Level Estimated
Sat 05:45:00 PM 32.3672 131.2633 63° Northeast  Level Estimated
Sat 05:46:00 PM 32.4262 131.4025 63° Northeast  Level Estimated
Sat 05:47:00 PM 32.4851 131.5418 63° Northeast  Level Estimated
Sat 05:48:00 PM 32.5438 131.6813 63° Northeast  Level Estimated
Sat 05:49:00 PM 32.6024 131.8210 64° Northeast  Level Estimated
Sat 05:50:00 PM 32.6608 131.9608 64° Northeast  Level Estimated
Sat 05:51:00 PM 32.7191 132.1009 64° Northeast  Level Estimated
Sat 05:52:00 PM 32.7772 132.2411 64° Northeast  Level Estimated
Sat 05:53:00 PM 32.8352 132.3815 64° Northeast  Level Estimated
Sat 05:54:00 PM 32.8930 132.5221 64° Northeast  Level Estimated
Sat 05:55:00 PM 32.9506 132.6629 64° Northeast  Level Estimated
Sat 05:56:00 PM 33.0081 132.8039 64° Northeast  Level Estimated
Sat 05:57:00 PM 33.0654 132.9450 64° Northeast  Level Estimated
Sat 05:58:00 PM 33.1226 133.0864 64° Northeast  Level Estimated
Sat 05:59:00 PM 33.1796 133.2279 64° Northeast  Level Estimated
Sat 06:00:00 PM 33.2364 133.3696 64° Northeast  Level Estimated
Sat 06:01:00 PM 33.2931 133.5115 64° Northeast  Level Estimated
Sat 06:02:00 PM 33.3496 133.6535 65° Northeast  Level Estimated
Sat 06:03:00 PM 33.4060 133.7958 65° Northeast  Level Estimated
Sat 06:04:00 PM 33.4622 133.9382 65° Northeast  Level Estimated
Sat 06:05:00 PM 33.5182 134.0809 65° Northeast  Level Estimated
Sat 06:06:00 PM 33.5741 134.2237 65° Northeast  Level Estimated
Sat 06:07:00 PM 33.6298 134.3667 65° Northeast  Level Estimated
Sat 06:08:00 PM 33.6853 134.5098 65° Northeast  Level Estimated
Sat 06:09:00 PM 33.7407 134.6532 65° Northeast  Level Estimated
Sat 06:10:00 PM 33.7959 134.7967 65° Northeast  Level Estimated
Sat 06:11:00 PM 33.8510 134.9405 65° Northeast  Level Estimated
Sat 06:12:00 PM 33.9059 135.0844 65° Northeast  Level Estimated
Sat 06:13:00 PM 33.9606 135.2285 65° Northeast  Level Estimated
Sat 06:14:00 PM 34.0151 135.3728 65° Northeast  Level Estimated
Sat 06:15:00 PM 34.0695 135.5172 66° East  Level Estimated
Sat 06:16:00 PM 34.1237 135.6619 66° East  Level Estimated
Sat 06:17:00 PM 34.1777 135.8067 66° East  Level Estimated
Sat 06:18:00 PM 34.2316 135.9518 66° East  Level Estimated
Sat 06:19:00 PM 34.2853 136.0970 66° East  Level Estimated
Sat 06:20:00 PM 34.3388 136.2424 66° East  Level Estimated
Sat 06:21:00 PM 34.3921 136.3880 66° East  Level Estimated
Sat 06:22:00 PM 34.4453 136.5337 66° East  Level Estimated
Sat 06:23:00 PM 34.4983 136.6797 66° East  Level Estimated
Sat 06:24:00 PM 34.5511 136.8258 66° East  Level Estimated
Sat 06:25:00 PM 34.6038 136.9722 66° East  Level Estimated
Sat 06:26:00 PM 34.6563 137.1187 66° East  Level Estimated
Sat 06:27:00 PM 34.7086 137.2654 67° East  Level Estimated
Sat 06:28:00 PM 34.7607 137.4123 67° East  Level Estimated
Sat 06:29:00 PM 34.8127 137.5593 67° East  Level Estimated
Sat 06:30:00 PM 34.8644 137.7066 67° East  Level Estimated
Sat 06:31:00 PM 34.9160 137.8540 67° East  Level Estimated
Sat 06:32:00 PM 34.9675 138.0016 67° East  Level Estimated
Sat 06:33:00 PM 35.0187 138.1494 67° East  Level Estimated
Sat 06:34:00 PM 35.0698 138.2974 67° East  Level Estimated
Sat 06:35:00 PM 35.1207 138.4456 67° East  Level Estimated
Sat 06:36:00 PM 35.1713 138.5940 67° East  Level Estimated
Sat 06:37:00 PM 35.2219 138.7425 67° East  Level Estimated
Sat 06:38:00 PM 35.2722 138.8913 67° East  Level Estimated
Sat 06:39:00 PM 35.3224 139.0402 68° East  Level Estimated
Sat 06:40:00 PM 35.3723 139.1893 68° East  Level Estimated
Sat 06:41:00 PM 35.4221 139.3386 68° East  Level Estimated
Sat 06:42:00 PM 35.4717 139.4880 68° East  Level Estimated
Sat 06:43:00 PM 35.5212 139.6377 68° East  Level Estimated
Sat 06:44:00 PM 35.5704 139.7875 68° East  Level Estimated
Sat 06:45:00 PM 35.6194 139.9376 68° East  Level Estimated
Sat 06:46:00 PM 35.6683 140.0878 68° East  Level Estimated
Sat 06:47:00 PM 35.7170 140.2382 68° East  Level Estimated
Sat 06:48:00 PM 35.7647 140.3864 68° East  Level Estimated
Sat 06:49:00 PM 35.7647 140.3864 338° Northwest  Level Estimated
Sat 06:50:00 PM 35.7647 140.3864 338° Northwest  Level Estimated
Sat 06:51:00 PM 35.7647 140.3864 338° Northwest  Level Estimated
Sat 06:52:00 PM 35.7647 140.3864 338° Northwest  Level Estimated
Sat 06:53:00 PM 35.7647 140.3864 338° Northwest  Level Estimated
Sat 06:54:00 PM 35.7647 140.3864 338° Northwest  Level Estimated
Sat 06:55:00 PM 35.7647 140.3864 338° Northwest  Level Estimated
Sat 06:56:00 PM 35.7647 140.3864 338° Northwest  Level Estimated
Sat 06:57:00 PM 35.7647 140.3864 338° Northwest  Level Estimated
Sat 06:58:00 PM 35.7647 140.3864 338° Northwest  Level Estimated
Sat 06:59:00 PM 35.7647 140.3864 338° Northwest  Level Estimated
Sat 07:00:00 PM 35.7647 140.3864 338° Northwest  Level Estimated
Sat 07:01:00 PM 35.7647 140.3864 338° Northwest  Level Estimated
Sat 07:02:00 PM 35.7647 140.3864 338° Northwest  Level Estimated
Sat 07:03:00 PM 35.7647 140.3864 338° Northwest  Level Estimated
Sat 07:04:00 PM 35.7647 140.3864 338° Northwest  Level Estimated

Login

Don't have an account? Register now (free) for customized features, flight alerts, and more!